Las horas y fechas están en horario UTC
Sumar 1 hora en el horario de Invierno y 2 horas en el de Verano

Informes METAR cercanos

 

LEZL - Sevilla (civ/Mil, Spain
Distance from station: NNE 24km
Actualización: 22/07/2019 17:30
Despejado
Despejado
 Viento del OSO
Viento: OSO 11 km/h
Temperatura: 37°C
Rocío: 18°C
Humedad: 33%
Barómetro: 1013 hPa
Resumen: Despejado
Visibility: greater than 10 km
2019/07/22 15:30 LEZL 221530Z 25006KT 190V290 CAVOK 37/18 Q1013 NOSIG
LEMO - Moron (sp-Usafb), Spain
Distance from station: E 38km
Actualización: 22/07/2019 17:00
Few Clouds
Few Clouds
 Viento del OSO
Viento: OSO 20 km/h
Temperatura: 36°C
Rocío: 19°C
Humedad: 37%
Barómetro: 1014 hPa
Clouds: Few Clouds
Visibility: 10 km
Cloud details: Few Clouds 1676 m
2019/07/22 15:00 LEMO 221500Z 25011KT 220V280 9999 FEW055 36/19 Q1014 NOSIG
LEJR - Jerez (civ/Mil), Spain
Distance from station: S 53km
Actualización: 22/07/2019 17:30
Despejado
Despejado
 Viento del varies
Viento: varies 7 km/h, Racha: 26 km/h
Temperatura: 38°C
Rocío: 17°C
Humedad: 29%
Barómetro: 1014 hPa
Resumen: Despejado
Visibility: greater than 10 km
2019/07/22 15:30 LEJR 221530Z VRB04G14KT CAVOK 38/17 Q1014
 
LERT - Rota Naval Stati, Spain
Distance from station: SSO 71km
Actualización: 22/07/2019 17:00
Despejado
Despejado
 Viento del SE
Viento: SE 24 km/h
Temperatura: 34°C
Heat Index: 36°C
Rocío: 19°C
Humedad: 41%
Barómetro: 1014 hPa
Resumen: Despejado
Visibility: greater than 10 km
2019/07/22 15:00 LERT 221500Z 14013KT 110V170 CAVOK 34/19 Q1014 NOSIG
LEBA - Cordoba Airport, Spain
Distance from station: ENE 128km
Actualización: 22/07/2019 17:30
Despejado
Despejado
 Viento del O
Viento: O 9 km/h
Temperatura: 40°C
Rocío: 17°C
Humedad: 26%
Barómetro: 1013 hPa
Resumen: Despejado
Visibility: greater than 10 km
2019/07/22 15:30 LEBA 221530Z 27005KT 180V350 CAVOK 40/17 Q1013
LXGB - Gibraltar (civ/M, Gibraltar
Distance from station: SSE 137km
Actualización: 22/07/2019 17:20
Few Clouds
Few Clouds
 Viento del E
Viento: E 19 km/h
Temperatura: 26°C
Rocío: 21°C
Humedad: 74%
Barómetro: 1016 hPa
Clouds: Few Clouds
Visibility: 10 km
Cloud details: Few Clouds 427 m
2019/07/22 15:20 LXGB 221520Z 09010KT 9999 FEW014 26/21 Q1016 BLU NOSIG RMK BLU BLU
 
LEMG - Malaga (civ/Mil), Spain
Distance from station: ESE 150km
Actualización: 22/07/2019 17:30
Despejado
Despejado
 Viento del SE
Viento: SE 19 km/h
Temperatura: 28°C
Heat Index: 30°C
Rocío: 21°C
Humedad: 66%
Barómetro: 1017 hPa
Resumen: Despejado
Visibility: greater than 10 km
2019/07/22 15:30 LEMG 221530Z 14010KT 100V170 CAVOK 28/21 Q1017 NOSIG
GMTT - Tangier/Boukhalf, Morocco
Distance from station: S 169km
Actualización: 22/07/2019 17:30
Despejado
Despejado
 Viento del E
Viento: E 24 km/h
Temperatura: 32°C
Heat Index: 34°C
Rocío: 19°C
Humedad: 46%
Barómetro: 1013 hPa
Resumen: Despejado
Visibility: greater than 10 km
2019/07/22 15:30 GMTT 221530Z 09013KT 060V120 CAVOK 32/19 Q1013 NOSIG
LPFR - Faro, Portugal
Distance from station: O 172km
Actualización: 22/07/2019 17:30
Despejado
Despejado
 Viento del SSE
Viento: SSE 17 km/h
Temperatura: 28°C
Heat Index: 30°C
Rocío: 21°C
Humedad: 66%
Barómetro: 1015 hPa
Resumen: Despejado
Visibility: greater than 10 km
2019/07/22 15:30 LPFR 221530Z 16009KT CAVOK 28/21 Q1015
 
LPBJ - Beja (por/Ger-Af, Portugal
Distance from station: ONO 192km
Actualización: 22/07/2019 17:00
Despejado
Despejado
 Viento del varies
Viento: varies 9 km/h
Temperatura: 36°C
Rocío: 4°C
Humedad: 13%
Barómetro: 1016 hPa
Resumen: Despejado
Visibility: greater than 10 km
2019/07/22 15:00 LPBJ 221500Z VRB05KT CAVOK 36/04 Q1016
LEBZ - Talavera Ab/Bada, Spain
Distance from station: NNO 194km
Actualización: 22/07/2019 17:00
Despejado
Despejado
 Viento del NNO
Viento: NNO 11 km/h
Temperatura: 38°C
Rocío: 8°C
Humedad: 16%
Barómetro: 1015 hPa
Resumen: Despejado
Visibility: greater than 10 km
2019/07/22 15:00 LEBZ 221500Z 34006KT 280V030 CAVOK 38/08 Q1015
LEMD - Madrid/Barajas, Spain
Distance from station: NE 415km
Actualización: 22/07/2019 17:30
Despejado
Despejado
 Viento del SSE
Viento: SSE 20 km/h
Temperatura: 38°C
Rocío: 9°C
Humedad: 17%
Barómetro: 1019 hPa
Resumen: Despejado
Visibility: greater than 10 km
2019/07/22 15:30 LEMD 221530Z 16011KT CAVOK 38/09 Q1019 NOSIG